Time;durP1;ratioP1;P1;durP2;ratioP2;P2;SDS_P1;SDS_P2;PMS_P1;PMS_P2;Temp;Humidity;BMP_temperature;BMP_pressure;BME280_temperature;BME280_humidity;BME280_pressure;Samples;Min_cycle;Max_cycle;Signal;HPM_P1;HPM_P2
2023/08/03 00:02:55;;;;;;;3.20;1.95;;;;;15.40;95051.00;;;;8394974;28;20691;-70
2023/08/03 00:06:59;;;;;;;4.40;2.20;;;;;15.40;95050.00;;;;8400934;28;20701;-70
2023/08/03 00:11:04;;;;;;;4.30;2.00;;;;;15.40;95051.00;;;;8400473;28;20199;-70
2023/08/03 00:15:09;;;;;;;7.35;2.42;;;;;15.30;95056.00;;;;8409737;28;20287;-70
2023/08/03 00:19:12;;;;;;;6.57;2.22;;;;;15.30;95061.00;;;;8400959;28;20207;-70
2023/08/03 00:23:15;;;;;;;2.58;2.13;;;;;15.30;95072.00;;;;8396841;28;20227;-70
2023/08/03 00:27:25;;;;;;;9.77;2.35;;;;;15.30;95058.00;;;;8398293;28;20728;-70
2023/08/03 00:31:30;;;;;;;6.50;2.70;;;;;15.30;95071.00;;;;8386461;28;20192;-70
2023/08/03 00:35:33;;;;;;;4.03;2.80;;;;;15.40;95090.00;;;;8391249;28;20783;-70
2023/08/03 00:39:36;;;;;;;5.15;2.50;;;;;15.40;95068.00;;;;8380961;28;20192;-71
2023/08/03 00:43:41;;;;;;;3.20;2.33;;;;;15.50;95068.00;;;;8393655;28;20949;-70
2023/08/03 00:47:46;;;;;;;5.05;2.45;;;;;15.60;95073.00;;;;8393791;28;20204;-71
2023/08/03 00:51:49;;;;;;;9.30;2.88;;;;;15.60;95063.00;;;;8388648;28;20237;-72
2023/08/03 00:55:55;;;;;;;3.97;2.25;;;;;15.70;95063.00;;;;8376692;28;20255;-70
2023/08/03 01:00:00;;;;;;;5.25;2.28;;;;;15.60;95068.00;;;;8388711;28;20200;-69
2023/08/03 01:04:07;;;;;;;3.90;2.13;;;;;15.60;95087.00;;;;8388326;28;20314;-71
2023/08/03 01:08:10;;;;;;;6.45;2.42;;;;;15.50;95088.00;;;;8379622;28;20789;-70
2023/08/03 01:12:14;;;;;;;4.28;2.55;;;;;15.40;95087.00;;;;8401598;28;20286;-71
2023/08/03 01:16:22;;;;;;;8.43;2.30;;;;;15.30;95087.00;;;;8401246;28;20286;-70
2023/08/03 01:20:29;;;;;;;7.07;2.38;;;;;15.20;95090.00;;;;8401309;28;20756;-71
2023/08/03 01:24:34;;;;;;;5.13;2.45;;;;;15.10;95078.00;;;;8369427;28;20220;-71
2023/08/03 01:28:37;;;;;;;4.20;2.10;;;;;15.00;95072.00;;;;8397165;28;20648;-70
2023/08/03 01:32:45;;;;;;;9.10;2.45;;;;;14.80;95067.00;;;;8407602;28;20231;-71
2023/08/03 01:36:49;;;;;;;10.35;2.47;;;;;14.70;95072.00;;;;8405487;28;20203;-70
2023/08/03 01:40:54;;;;;;;2.72;2.00;;;;;14.60;95052.00;;;;8400404;28;20199;-71
2023/08/03 01:44:57;;;;;;;7.05;2.28;;;;;14.50;95039.00;;;;8383382;28;20273;-70
2023/08/03 01:49:01;;;;;;;8.15;2.28;;;;;14.60;95055.00;;;;8387891;28;20637;-71
2023/08/03 01:53:04;;;;;;;8.85;2.65;;;;;14.70;95061.00;;;;8386829;28;20287;-71
2023/08/03 01:57:09;;;;;;;16.63;2.50;;;;;14.80;95059.00;;;;8380105;28;20228;-70
2023/08/03 02:01:12;;;;;;;11.90;2.55;;;;;14.90;95058.00;;;;8393784;28;20314;-72
2023/08/03 02:05:22;;;;;;;6.80;2.38;;;;;14.90;95062.00;;;;8394991;28;20668;-71
2023/08/03 02:09:25;;;;;;;9.75;2.55;;;;;14.80;95050.00;;;;8406974;28;20216;-72
2023/08/03 02:13:30;;;;;;;14.65;2.70;;;;;14.70;95042.00;;;;8389448;28;20203;-70
2023/08/03 02:17:42;;;;;;;7.88;2.83;;;;;14.60;95040.00;;;;8400501;28;20882;-71
2023/08/03 02:21:45;;;;;;;7.88;2.75;;;;;14.60;95052.00;;;;8392526;28;20278;-72
2023/08/03 02:26:02;;;;;;;10.07;2.20;;;;;14.60;95064.00;;;;8388837;28;20203;-71
2023/08/03 02:30:13;;;;;;;9.05;2.30;;;;;14.60;95060.00;;;;8404544;28;20288;-72
2023/08/03 02:34:16;;;;;;;9.82;2.60;;;;;14.60;95066.00;;;;8395405;28;20223;-72
2023/08/03 02:38:20;;;;;;;7.95;2.58;;;;;14.60;95080.00;;;;8390876;28;20389;-71
2023/08/03 02:42:23;;;;;;;5.90;2.17;;;;;14.60;95076.00;;;;8387237;28;20222;-73
2023/08/03 02:46:30;;;;;;;3.38;2.25;;;;;14.50;95067.00;;;;8394118;28;20625;-71
2023/08/03 02:50:33;;;;;;;10.05;3.47;;;;;14.50;95065.00;;;;8384641;28;20200;-71
2023/08/03 02:54:38;;;;;;;6.70;2.42;;;;;14.50;95040.00;;;;8395938;28;20270;-72
2023/08/03 02:58:41;;;;;;;9.57;2.40;;;;;14.30;95042.00;;;;8401528;28;20196;-72
2023/08/03 03:02:46;;;;;;;11.20;2.20;;;;;14.20;95023.00;;;;8432550;22;20218;-71
2023/08/03 03:06:54;;;;;;;5.30;2.65;;;;;14.00;95046.00;;;;8405804;28;20779;-71
2023/08/03 03:10:58;;;;;;;7.00;2.20;;;;;13.90;95062.00;;;;8408792;28;20195;-71
2023/08/03 03:15:01;;;;;;;7.38;2.70;;;;;13.80;95067.00;;;;8406871;28;20191;-72
2023/08/03 03:19:09;;;;;;;6.88;2.10;;;;;13.80;95075.00;;;;8392222;28;20202;-72
2023/08/03 03:23:12;;;;;;;45.45;3.30;;;;;13.80;95078.00;;;;8404566;28;20245;-72
2023/08/03 03:27:16;;;;;;;4.68;1.90;;;;;13.60;95089.00;;;;8390399;28;20214;-72
2023/08/03 03:31:19;;;;;;;8.32;2.42;;;;;13.60;95094.00;;;;8385553;28;20230;-74
2023/08/03 03:35:28;;;;;;;10.60;2.40;;;;;13.50;95094.00;;;;8396583;28;20825;-73
2023/08/03 03:39:35;;;;;;;13.05;2.63;;;;;13.40;95087.00;;;;8382261;28;20286;-71
2023/08/03 03:43:38;;;;;;;4.97;2.50;;;;;13.40;95086.00;;;;8394214;28;20227;-72
2023/08/03 03:47:41;;;;;;;11.75;2.83;;;;;13.30;95083.00;;;;8401919;28;20278;-72
2023/08/03 03:51:46;;;;;;;11.00;2.80;;;;;13.30;95096.00;;;;8392231;28;20705;-72
2023/08/03 03:55:50;;;;;;;22.70;3.42;;;;;13.30;95100.00;;;;8389097;28;20209;-72
2023/08/03 03:59:54;;;;;;;36.28;3.28;;;;;13.30;95113.00;;;;8399604;28;20198;-72
2023/08/03 04:04:01;;;;;;;16.20;3.38;;;;;13.30;95123.00;;;;8412880;28;20235;-72
2023/08/03 04:08:09;;;;;;;10.32;2.67;;;;;13.30;95122.00;;;;8431023;28;20199;-71
2023/08/03 04:12:17;;;;;;;253.70;9.75;;;;;13.30;95123.00;;;;8433744;28;20328;-74
2023/08/03 04:16:20;;;;;;;6.03;2.60;;;;;13.30;95124.00;;;;8430681;28;20286;-74
2023/08/03 04:20:23;;;;;;;6.45;2.88;;;;;13.30;95134.00;;;;8421264;28;20216;-74
2023/08/03 04:24:28;;;;;;;7.05;2.80;;;;;13.40;95152.00;;;;8421589;28;20306;-75
2023/08/03 04:28:31;;;;;;;43.97;4.53;;;;;13.50;95150.00;;;;8435580;27;20191;-72
2023/08/03 04:32:38;;;;;;;18.60;3.55;;;;;13.50;95152.00;;;;8431796;28;20202;-74
2023/08/03 04:36:43;;;;;;;21.00;4.03;;;;;13.50;95144.00;;;;8427380;28;20210;-75
2023/08/03 04:40:50;;;;;;;13.68;3.35;;;;;13.60;95138.00;;;;8419859;28;20239;-75
2023/08/03 04:44:53;;;;;;;10.43;3.20;;;;;13.70;95140.00;;;;8423133;28;20807;-75
2023/08/03 04:48:58;;;;;;;5.90;3.13;;;;;13.80;95131.00;;;;8427880;28;20202;-75
2023/08/03 04:53:01;;;;;;;5.30;2.85;;;;;13.90;95127.00;;;;8430707;28;20274;-75
2023/08/03 04:57:09;;;;;;;5.03;2.78;;;;;14.00;95120.00;;;;8428725;28;20187;-75
2023/08/03 05:01:13;;;;;;;6.72;3.00;;;;;14.20;95125.00;;;;8423361;28;20550;-75
2023/08/03 05:05:20;;;;;;;7.75;3.13;;;;;14.50;95123.00;;;;8425850;28;20227;-75
2023/08/03 05:09:26;;;;;;;9.70;3.85;;;;;14.70;95131.00;;;;8429652;28;20198;-75
2023/08/03 05:13:32;;;;;;;12.18;4.05;;;;;15.00;95140.00;;;;8423166;28;20298;-75
2023/08/03 05:17:39;;;;;;;6.22;3.58;;;;;15.30;95159.00;;;;8436449;28;20191;-75
2023/08/03 05:27:05;;;;;;;8.77;3.53;;;;;15.70;95158.00;;;;8357098;28;20256;-75
2023/08/03 05:31:10;;;;;;;9.85;2.97;;;;;15.90;95146.00;;;;8400828;28;20751;-75
2023/08/03 05:35:16;;;;;;;11.07;3.38;;;;;16.10;95159.00;;;;8416497;28;20196;-74
2023/08/03 05:39:19;;;;;;;10.25;3.58;;;;;16.30;95163.00;;;;8429768;28;20203;-75
2023/08/03 05:43:25;;;;;;;11.85;2.80;;;;;16.60;95159.00;;;;8432169;28;20683;-75
2023/08/03 05:47:32;;;;;;;12.98;2.88;;;;;16.90;95154.00;;;;8414838;28;20234;-75
2023/08/03 05:51:39;;;;;;;10.32;2.60;;;;;17.10;95161.00;;;;8413807;28;20199;-75
2023/08/03 05:55:43;;;;;;;9.25;2.35;;;;;17.30;95155.00;;;;8424967;28;20210;-75
2023/08/03 06:00:18;;;;;;;5.70;2.30;;;;;17.60;95173.00;;;;8415598;28;20226;-75
2023/08/03 06:04:23;;;;;;;6.20;2.13;;;;;17.80;95176.00;;;;8404539;28;20226;-75
2023/08/03 06:08:27;;;;;;;12.73;2.60;;;;;18.00;95178.00;;;;8395658;28;20203;-73
2023/08/03 06:12:31;;;;;;;8.45;2.17;;;;;18.20;95187.00;;;;8422305;28;20191;-73
2023/08/03 06:16:34;;;;;;;7.03;2.22;;;;;18.40;95186.00;;;;8419399;28;20314;-72
2023/08/03 06:20:43;;;;;;;9.32;1.88;;;;;18.70;95187.00;;;;8419054;28;22025;-73
2023/08/03 06:24:48;;;;;;;3.50;1.60;;;;;18.70;95194.00;;;;8414736;28;20310;-72
2023/08/03 06:28:56;;;;;;;3.97;1.60;;;;;18.70;95208.00;;;;8430827;28;20887;-73
2023/08/03 06:32:59;;;;;;;9.70;2.50;;;;;18.80;95213.00;;;;8423942;28;20241;-72
2023/08/03 06:37:05;;;;;;;12.30;2.00;;;;;19.00;95206.00;;;;8417410;28;20256;-72
2023/08/03 06:46:31;;;;;;;5.22;1.45;;;;;19.70;95225.00;;;;8414411;28;20230;-74
2023/08/03 06:50:53;;;;;;;2.97;1.60;;;;;20.00;95221.00;;;;8417093;28;20199;-73
2023/08/03 06:55:00;;;;;;;5.32;1.63;;;;;20.30;95229.00;;;;8427209;28;20199;-75
2023/08/03 06:59:06;;;;;;;7.75;1.85;;;;;20.60;95218.00;;;;8426459;28;20210;-75
2023/08/03 07:03:10;;;;;;;6.82;1.52;;;;;20.70;95223.00;;;;8420113;28;20219;-74
2023/08/03 07:07:14;;;;;;;4.10;1.65;;;;;20.80;95223.00;;;;8427607;28;20219;-74
2023/08/03 07:11:18;;;;;;;2.08;1.15;;;;;21.00;95236.00;;;;8429572;28;20285;-74
2023/08/03 07:15:22;;;;;;;2.42;1.50;;;;;21.20;95244.00;;;;8421293;28;20297;-74
2023/08/03 07:19:25;;;;;;;8.02;1.40;;;;;21.30;95236.00;;;;8418146;28;20191;-75
2023/08/03 07:23:28;;;;;;;8.63;1.67;;;;;21.70;95237.00;;;;8420684;28;20206;-74
2023/08/03 07:27:40;;;;;;;4.80;1.60;;;;;22.00;95225.00;;;;8421350;28;20195;-73
2023/08/03 07:31:43;;;;;;;3.03;1.55;;;;;22.10;95227.00;;;;8404124;28;20286;-72
2023/08/03 07:35:47;;;;;;;2.60;1.23;;;;;22.10;95226.00;;;;8422578;28;20247;-71
2023/08/03 07:39:50;;;;;;;15.02;1.75;;;;;22.10;95232.00;;;;8403957;28;20314;-71
2023/08/03 07:44:00;;;;;;;4.95;1.83;;;;;22.10;95229.00;;;;8411832;28;20187;-71
2023/08/03 07:48:04;;;;;;;3.10;1.15;;;;;22.30;95245.00;;;;8426923;28;20203;-71
2023/08/03 07:52:08;;;;;;;2.50;1.20;;;;;22.50;95255.00;;;;8425778;28;20298;-72
2023/08/03 07:56:17;;;;;;;5.68;1.33;;;;;22.70;95249.00;;;;8425715;28;20761;-71
2023/08/03 08:00:23;;;;;;;5.75;1.40;;;;;22.90;95254.00;;;;8423487;28;20203;-71
2023/08/03 08:04:29;;;;;;;5.63;1.52;;;;;23.10;95252.00;;;;8420525;28;21002;-72
2023/08/03 08:08:32;;;;;;;1.75;1.08;;;;;23.50;95261.00;;;;8433850;28;20198;-72
2023/08/03 08:12:36;;;;;;;1.25;1.13;;;;;23.60;95252.00;;;;8429457;28;20195;-74
2023/08/03 08:16:41;;;;;;;1.88;1.10;;;;;23.80;95256.00;;;;8425840;28;20306;-72
2023/08/03 08:20:46;;;;;;;4.93;1.20;;;;;24.10;95244.00;;;;8429975;28;20245;-72
2023/08/03 08:24:49;;;;;;;4.88;1.13;;;;;24.50;95245.00;;;;8420829;28;20226;-72
2023/08/03 08:28:56;;;;;;;1.95;0.90;;;;;24.80;95258.00;;;;8417963;28;20203;-72
2023/08/03 08:33:10;;;;;;;1.90;1.13;;;;;25.20;95282.00;;;;8417461;28;20909;-72
2023/08/03 08:37:17;;;;;;;3.20;0.93;;;;;25.50;95296.00;;;;8422300;28;20994;-71
2023/08/03 08:41:26;;;;;;;2.70;1.23;;;;;25.70;95298.00;;;;8418554;28;20625;-71
2023/08/03 08:45:30;;;;;;;2.35;1.00;;;;;25.50;95302.00;;;;8419048;28;20251;-71
2023/08/03 08:49:35;;;;;;;2.33;0.93;;;;;25.20;95283.00;;;;8418239;28;20199;-71
2023/08/03 08:53:41;;;;;;;1.30;0.88;;;;;25.30;95296.00;;;;8401948;28;20195;-71
2023/08/03 08:57:54;;;;;;;2.33;0.93;;;;;25.50;95291.00;;;;8404268;28;20235;-72
2023/08/03 09:02:02;;;;;;;3.53;1.30;;;;;25.70;95293.00;;;;8424075;28;20230;-73
2023/08/03 09:06:08;;;;;;;1.05;0.98;;;;;25.80;95283.00;;;;8425744;28;20262;-73
2023/08/03 09:16:45;;;;;;;1.70;1.08;;;;;26.00;95295.00;;;;8384127;28;20208;-70
2023/08/03 09:20:51;;;;;;;2.15;1.35;;;;;26.40;95298.00;;;;8415023;28;20207;-69
2023/08/03 09:46:57;;;;;;;2.40;1.08;;;;;26.70;95343.00;;;;8427582;28;20234;-70
2023/08/03 09:51:20;;;;;;;0.80;0.80;;;;;27.00;95334.00;;;;8424197;28;20202;-70
2023/08/03 09:56:17;;;;;;;4.13;1.20;;;;;27.10;95352.00;;;;8422878;28;20237;-70
2023/08/03 10:07:13;;;;;;;3.70;1.33;;;;;26.80;95350.00;;;;8411392;28;20257;-69
2023/08/03 10:33:55;;;;;;;2.13;0.95;;;;;26.80;95349.00;;;;8429000;28;20298;-70
2023/08/03 10:38:30;;;;;;;3.95;0.93;;;;;27.60;95374.00;;;;8415431;28;20203;-71
2023/08/03 10:47:48;;;;;;;3.65;1.08;;;;;27.80;95367.00;;;;8426829;28;21020;-69
2023/08/03 10:52:24;;;;;;;1.58;0.93;;;;;27.50;95368.00;;;;8412217;28;20219;-68
2023/08/03 10:57:05;;;;;;;0.93;0.90;;;;;27.80;95370.00;;;;8416949;28;20206;-68
2023/08/03 11:07:32;;;;;;;2.92;0.70;;;;;28.10;95350.00;;;;8417673;28;20256;-71
2023/08/03 11:12:07;;;;;;;3.10;0.77;;;;;28.30;95351.00;;;;8417721;28;20604;-68
2023/08/03 11:16:36;;;;;;;2.05;0.70;;;;;28.50;95338.00;;;;8425673;28;20210;-69
2023/08/03 11:21:00;;;;;;;3.15;0.80;;;;;28.70;95359.00;;;;8435064;28;20212;-68
2023/08/03 11:25:27;;;;;;;0.80;0.63;;;;;28.90;95351.00;;;;8421611;28;20224;-68
2023/08/03 11:30:03;;;;;;;3.38;1.33;;;;;29.00;95357.00;;;;8429936;28;20642;-68
2023/08/03 11:34:35;;;;;;;0.80;0.80;;;;;28.90;95355.00;;;;8428959;28;20235;-70
2023/08/03 11:39:21;;;;;;;1.55;0.80;;;;;29.60;95358.00;;;;8429251;28;20302;-69
2023/08/03 11:43:34;;;;;;;3.92;0.85;;;;;29.80;95358.00;;;;8433417;28;20211;-67
2023/08/03 11:47:56;;;;;;;1.30;0.73;;;;;29.60;95366.00;;;;8428791;28;20257;-67
2023/08/03 12:02:13;;;;;;;1.23;0.90;;;;;29.90;95379.00;;;;8414597;28;20591;-67
2023/08/03 12:06:54;;;;;;;2.28;0.75;;;;;29.70;95383.00;;;;8428294;28;20224;-67
2023/08/03 13:11:12;;;;;;;0.60;0.60;;;;;26.60;95434.00;;;;8420387;28;20269;-66
2023/08/03 13:15:43;;;;;;;0.75;0.75;;;;;26.60;95429.00;;;;8424969;28;20286;-66
2023/08/03 13:30:43;;;;;;;2.88;0.90;;;;;26.60;95444.00;;;;8422002;28;20234;-67
2023/08/03 13:35:27;;;;;;;2.55;0.75;;;;;27.00;95439.00;;;;8418189;28;20218;-67
2023/08/03 13:44:40;;;;;;;1.10;0.73;;;;;28.00;95459.00;;;;8423726;28;20221;-67
2023/08/03 13:49:23;;;;;;;2.50;1.00;;;;;28.30;95449.00;;;;8422796;28;20322;-67
2023/08/03 13:58:56;;;;;;;0.70;0.70;;;;;27.30;95460.00;;;;8429153;28;20259;-67
2023/08/03 14:14:31;;;;;;;0.77;0.77;;;;;28.40;95461.00;;;;8417275;28;20288;-67
2023/08/03 14:24:17;;;;;;;1.75;0.70;;;;;28.60;95473.00;;;;8402759;22;20322;-67
2023/08/03 14:28:34;;;;;;;1.02;0.90;;;;;28.90;95471.00;;;;8374454;28;20699;-69
2023/08/03 14:32:46;;;;;;;1.65;0.70;;;;;28.80;95473.00;;;;8369662;28;20204;-71
2023/08/03 14:41:56;;;;;;;1.10;0.75;;;;;28.10;95475.00;;;;8365784;28;20213;-69
2023/08/03 14:46:32;;;;;;;0.88;0.80;;;;;28.40;95484.00;;;;8370437;28;20228;-70
2023/08/03 14:51:01;;;;;;;0.77;0.77;;;;;28.80;95485.00;;;;8373269;28;20196;-71
2023/08/03 14:55:39;;;;;;;1.55;0.80;;;;;28.60;95482.00;;;;8372254;28;20211;-71
2023/08/03 15:00:19;;;;;;;1.20;0.68;;;;;28.70;95496.00;;;;8368531;28;20919;-71
2023/08/03 15:04:29;;;;;;;2.45;0.90;;;;;28.90;95481.00;;;;8367732;28;20675;-71
2023/08/03 15:08:34;;;;;;;1.42;0.77;;;;;29.20;95489.00;;;;8376502;28;20250;-71
2023/08/03 15:12:42;;;;;;;0.80;0.73;;;;;29.20;95490.00;;;;8374769;28;20427;-70
2023/08/03 15:16:48;;;;;;;1.75;0.63;;;;;29.10;95512.00;;;;8370496;28;20322;-69
2023/08/03 15:21:00;;;;;;;2.50;0.95;;;;;28.90;95501.00;;;;8376100;28;21030;-71
2023/08/03 15:25:09;;;;;;;0.82;0.60;;;;;28.90;95503.00;;;;8376620;28;20200;-72
2023/08/03 15:29:14;;;;;;;2.50;0.68;;;;;28.90;95499.00;;;;8374788;28;20700;-71
2023/08/03 15:33:28;;;;;;;1.17;0.80;;;;;28.90;95483.00;;;;8369616;28;20600;-68
2023/08/03 15:37:31;;;;;;;0.80;0.80;;;;;28.70;95495.00;;;;8377563;28;20201;-71
2023/08/03 15:41:41;;;;;;;3.25;0.70;;;;;28.90;95499.00;;;;8377202;28;20200;-71
2023/08/03 15:45:48;;;;;;;2.40;0.80;;;;;28.80;95498.00;;;;8369190;28;20223;-71
2023/08/03 15:49:55;;;;;;;2.75;0.70;;;;;28.30;95501.00;;;;8354135;28;20821;-70
2023/08/03 15:54:05;;;;;;;1.13;0.80;;;;;27.70;95495.00;;;;8372598;28;20203;-71
2023/08/03 15:58:18;;;;;;;1.50;0.70;;;;;27.90;95492.00;;;;8383182;28;20191;-70
2023/08/03 16:02:25;;;;;;;1.13;1.13;;;;;28.10;95499.00;;;;8356766;28;20223;-71
2023/08/03 16:06:30;;;;;;;0.75;0.75;;;;;28.10;95498.00;;;;8383169;28;20227;-70
2023/08/03 16:10:36;;;;;;;1.05;0.93;;;;;28.20;95505.00;;;;8367977;28;20195;-70
2023/08/03 16:14:43;;;;;;;1.38;0.70;;;;;28.20;95495.00;;;;8378605;28;20727;-70
2023/08/03 16:18:46;;;;;;;1.77;0.60;;;;;27.90;95512.00;;;;8378668;28;20197;-71
2023/08/03 16:22:54;;;;;;;0.90;0.90;;;;;27.50;95516.00;;;;8369663;28;20810;-73
2023/08/03 16:26:57;;;;;;;1.00;1.00;;;;;27.20;95520.00;;;;8369257;28;20255;-71
2023/08/03 16:31:03;;;;;;;1.48;0.95;;;;;27.30;95511.00;;;;8373111;28;21326;-71
2023/08/03 16:35:08;;;;;;;1.70;0.68;;;;;27.20;95505.00;;;;8376011;28;20291;-71
2023/08/03 16:39:11;;;;;;;6.43;1.40;;;;;26.70;95518.00;;;;8375786;28;20199;-71
2023/08/03 16:43:16;;;;;;;0.80;0.70;;;;;26.40;95502.00;;;;8381711;28;20192;-71
2023/08/03 16:47:25;;;;;;;2.17;0.98;;;;;25.90;95516.00;;;;8375429;28;20297;-71
2023/08/03 16:51:30;;;;;;;1.20;0.80;;;;;25.60;95509.00;;;;8379086;28;20292;-71
2023/08/03 16:55:38;;;;;;;2.95;1.02;;;;;26.10;95509.00;;;;8379488;28;20249;-71
2023/08/03 16:59:43;;;;;;;1.05;0.95;;;;;26.50;95509.00;;;;8381178;28;20284;-71
2023/08/03 17:03:47;;;;;;;0.90;0.90;;;;;27.00;95505.00;;;;8381874;28;20516;-71
2023/08/03 17:07:54;;;;;;;1.25;0.90;;;;;27.40;95503.00;;;;8382322;28;20228;-71
2023/08/03 17:11:58;;;;;;;2.60;0.90;;;;;27.70;95513.00;;;;8377160;28;20204;-71
2023/08/03 17:16:04;;;;;;;2.88;0.85;;;;;28.20;95517.00;;;;8378153;28;20296;-70
2023/08/03 17:20:09;;;;;;;0.90;0.90;;;;;28.70;95522.00;;;;8373485;28;20404;-71
2023/08/03 17:24:13;;;;;;;0.90;0.85;;;;;29.10;95517.00;;;;8375921;28;20270;-71
2023/08/03 17:28:17;;;;;;;1.08;0.80;;;;;29.40;95515.00;;;;8376503;28;20237;-71
2023/08/03 17:32:24;;;;;;;0.80;0.80;;;;;29.40;95524.00;;;;8370100;28;20199;-71
2023/08/03 17:36:34;;;;;;;0.80;0.80;;;;;29.40;95531.00;;;;8369960;28;20228;-72
2023/08/03 17:40:38;;;;;;;1.02;0.88;;;;;29.60;95531.00;;;;8377248;28;20246;-72
2023/08/03 17:44:41;;;;;;;0.80;0.80;;;;;29.40;95540.00;;;;8351247;28;20673;-71
2023/08/03 17:48:49;;;;;;;1.17;1.08;;;;;28.90;95545.00;;;;8372238;28;20224;-72
2023/08/03 17:52:59;;;;;;;1.00;0.90;;;;;28.50;95542.00;;;;8368014;28;20208;-72
2023/08/03 17:57:02;;;;;;;0.95;0.95;;;;;27.70;95545.00;;;;8372826;28;20200;-72
2023/08/03 18:01:13;;;;;;;1.85;0.90;;;;;26.80;95546.00;;;;8370576;28;20560;-72
2023/08/03 18:05:17;;;;;;;0.60;0.60;;;;;25.80;95555.00;;;;8367866;28;20192;-72
2023/08/03 18:09:22;;;;;;;0.88;0.80;;;;;24.90;95553.00;;;;8373424;28;20234;-73
2023/08/03 18:13:26;;;;;;;2.00;0.90;;;;;24.30;95558.00;;;;8369062;28;20723;-72
2023/08/03 18:17:34;;;;;;;1.25;1.00;;;;;23.80;95582.00;;;;8366464;28;20873;-73
2023/08/03 18:21:38;;;;;;;1.05;0.80;;;;;23.50;95588.00;;;;8369534;28;20723;-71
2023/08/03 18:25:43;;;;;;;0.95;0.85;;;;;23.10;95587.00;;;;8350381;28;20323;-71
2023/08/03 18:29:46;;;;;;;2.53;0.82;;;;;22.90;95590.00;;;;8372503;28;20226;-71
2023/08/03 18:33:49;;;;;;;1.05;0.80;;;;;22.60;95603.00;;;;8357906;28;20207;-69
2023/08/03 18:37:57;;;;;;;0.82;0.82;;;;;22.40;95592.00;;;;8345421;28;20196;-70
2023/08/03 18:42:07;;;;;;;0.90;0.90;;;;;22.10;95600.00;;;;8367426;28;20204;-69
2023/08/03 18:46:14;;;;;;;0.95;0.80;;;;;21.90;95605.00;;;;8367384;28;20201;-70
2023/08/03 18:50:19;;;;;;;1.35;0.80;;;;;21.70;95609.00;;;;8369649;28;20224;-68
2023/08/03 18:54:27;;;;;;;3.38;1.13;;;;;21.50;95605.00;;;;8365839;28;20287;-69
2023/08/03 18:58:35;;;;;;;1.08;0.98;;;;;21.30;95609.00;;;;8365035;28;20196;-69
2023/08/03 19:02:41;;;;;;;1.90;0.82;;;;;21.00;95607.00;;;;8364221;28;20201;-68
2023/08/03 19:06:47;;;;;;;1.27;1.10;;;;;20.80;95607.00;;;;8373094;28;20211;-68
2023/08/03 19:10:51;;;;;;;0.70;0.70;;;;;20.50;95626.00;;;;8368047;28;20258;-69
2023/08/03 19:14:55;;;;;;;1.42;0.90;;;;;20.20;95627.00;;;;8355935;28;20196;-68
2023/08/03 19:18:59;;;;;;;3.45;1.17;;;;;20.00;95633.00;;;;8370263;28;20208;-68
2023/08/03 19:23:06;;;;;;;34.92;2.10;;;;;19.80;95644.00;;;;8358259;28;20223;-68
2023/08/03 19:27:10;;;;;;;3.95;1.08;;;;;19.50;95652.00;;;;8372062;28;20291;-70
2023/08/03 19:31:28;;;;;;;0.88;0.80;;;;;19.10;95660.00;;;;8379067;28;20253;-70
2023/08/03 19:35:34;;;;;;;1.13;0.80;;;;;18.70;95647.00;;;;8378234;28;20204;-70
2023/08/03 19:39:40;;;;;;;1.80;0.90;;;;;18.30;95651.00;;;;8377158;28;20287;-70
2023/08/03 19:43:46;;;;;;;2.25;1.02;;;;;18.10;95653.00;;;;8377449;28;20728;-70
2023/08/03 19:47:52;;;;;;;2.60;0.93;;;;;17.80;95657.00;;;;8380743;28;20289;-70
2023/08/03 19:51:58;;;;;;;2.70;1.23;;;;;17.60;95657.00;;;;8378861;28;20200;-70
2023/08/03 19:56:23;;;;;;;1.48;1.20;;;;;17.40;95665.00;;;;8380768;28;20634;-71
2023/08/03 20:00:32;;;;;;;1.73;1.33;;;;;17.30;95676.00;;;;8379619;28;20201;-70
2023/08/03 20:04:42;;;;;;;2.58;1.48;;;;;17.10;95674.00;;;;8373860;28;20214;-70
2023/08/03 20:08:51;;;;;;;2.92;1.92;;;;;17.00;95672.00;;;;8381737;28;20232;-70
2023/08/03 20:12:55;;;;;;;3.30;1.60;;;;;16.90;95676.00;;;;8385698;28;20212;-70
2023/08/03 20:17:01;;;;;;;2.85;1.40;;;;;16.80;95681.00;;;;8379881;28;20197;-70
2023/08/03 20:21:14;;;;;;;3.20;1.60;;;;;16.80;95695.00;;;;8381816;28;20335;-71
2023/08/03 20:25:18;;;;;;;2.75;1.60;;;;;16.70;95685.00;;;;8377824;28;20196;-70
2023/08/03 20:29:25;;;;;;;2.58;1.30;;;;;16.60;95688.00;;;;8377391;28;20242;-69
2023/08/03 20:33:33;;;;;;;1.90;1.60;;;;;16.50;95688.00;;;;8374621;28;20201;-70
2023/08/03 20:37:46;;;;;;;2.95;1.92;;;;;16.40;95702.00;;;;8381621;28;20196;-70
2023/08/03 20:41:52;;;;;;;3.03;1.75;;;;;16.30;95703.00;;;;8387168;28;20991;-70
2023/08/03 20:45:59;;;;;;;1.90;1.80;;;;;16.20;95700.00;;;;8382755;28;20282;-70
2023/08/03 20:50:02;;;;;;;1.75;1.52;;;;;16.20;95699.00;;;;8372056;28;20782;-71
2023/08/03 20:54:15;;;;;;;2.53;1.77;;;;;16.20;95716.00;;;;8383267;28;20204;-70
2023/08/03 20:58:21;;;;;;;5.00;1.30;;;;;16.20;95706.00;;;;8369014;28;20619;-70
2023/08/03 21:02:28;;;;;;;2.83;1.45;;;;;16.20;95709.00;;;;8383232;28;20647;-70
2023/08/03 21:06:32;;;;;;;6.35;1.02;;;;;16.20;95709.00;;;;8379647;28;20286;-71
2023/08/03 21:10:40;;;;;;;1.85;1.25;;;;;16.30;95714.00;;;;8382748;28;20235;-70
2023/08/03 21:14:51;;;;;;;1.33;1.30;;;;;16.30;95726.00;;;;8381067;28;20543;-70
2023/08/03 21:18:58;;;;;;;2.38;1.00;;;;;16.40;95728.00;;;;8386590;28;20235;-70
2023/08/03 21:23:07;;;;;;;1.85;1.00;;;;;16.50;95726.00;;;;8380803;28;20281;-70
2023/08/03 21:27:14;;;;;;;1.13;1.00;;;;;16.60;95715.00;;;;8384643;28;20936;-70
2023/08/03 21:31:18;;;;;;;0.80;0.80;;;;;16.70;95711.00;;;;8388972;28;20226;-70
2023/08/03 21:35:24;;;;;;;3.72;0.90;;;;;17.00;95696.00;;;;8388680;28;20192;-70
2023/08/03 21:39:32;;;;;;;1.30;1.27;;;;;17.20;95723.00;;;;8387120;28;20290;-70
2023/08/03 21:43:37;;;;;;;0.98;0.98;;;;;17.40;95724.00;;;;8386311;28;20266;-70
2023/08/03 21:47:42;;;;;;;1.50;1.17;;;;;17.60;95738.00;;;;8386720;28;20200;-70
2023/08/03 21:51:46;;;;;;;1.10;1.10;;;;;17.40;95756.00;;;;8388241;28;20815;-70
2023/08/03 21:55:50;;;;;;;3.28;2.00;;;;;17.20;95758.00;;;;8372714;28;20202;-70
2023/08/03 21:59:56;;;;;;;4.32;1.25;;;;;17.00;95744.00;;;;8382369;28;20576;-69
2023/08/03 22:03:59;;;;;;;2.40;1.73;;;;;16.80;95765.00;;;;8377302;28;20680;-70
2023/08/03 22:08:04;;;;;;;2.63;1.55;;;;;16.70;95782.00;;;;8381212;28;20247;-70
2023/08/03 22:12:07;;;;;;;1.75;1.27;;;;;16.50;95786.00;;;;8377007;28;20235;-69
2023/08/03 22:16:12;;;;;;;3.80;1.45;;;;;16.40;95788.00;;;;8385913;28;20215;-69
2023/08/03 22:20:18;;;;;;;5.55;1.30;;;;;16.30;95795.00;;;;8374752;28;20196;-70
2023/08/03 22:24:23;;;;;;;1.65;1.55;;;;;16.20;95794.00;;;;8379314;28;20223;-70
2023/08/03 22:28:28;;;;;;;2.63;1.60;;;;;16.20;95800.00;;;;8370947;28;20205;-70
2023/08/03 22:32:33;;;;;;;1.60;1.50;;;;;16.10;95787.00;;;;8358858;28;20662;-68
2023/08/03 22:36:39;;;;;;;2.85;1.15;;;;;16.10;95791.00;;;;8373304;28;20700;-70
2023/08/03 22:40:44;;;;;;;2.38;1.40;;;;;16.10;95782.00;;;;8379461;28;20849;-69
2023/08/03 22:44:48;;;;;;;2.35;1.45;;;;;16.10;95786.00;;;;8367363;28;20204;-69
2023/08/03 22:48:54;;;;;;;3.55;1.42;;;;;16.10;95775.00;;;;8359894;28;20230;-68
2023/08/03 22:52:58;;;;;;;1.20;1.20;;;;;16.10;95795.00;;;;8362642;28;20562;-69
2023/08/03 22:57:02;;;;;;;2.78;1.20;;;;;16.10;95788.00;;;;8363283;28;20230;-69
2023/08/03 23:01:16;;;;;;;1.98;1.38;;;;;16.10;95784.00;;;;8370886;28;20291;-69
2023/08/03 23:05:21;;;;;;;1.60;1.30;;;;;16.10;95785.00;;;;8365968;28;20449;-69
2023/08/03 23:09:24;;;;;;;1.30;1.30;;;;;16.10;95779.00;;;;8363964;28;20309;-69
2023/08/03 23:13:27;;;;;;;1.27;1.27;;;;;16.10;95777.00;;;;8381231;28;20196;-70
2023/08/03 23:17:31;;;;;;;1.63;1.40;;;;;16.10;95791.00;;;;8381773;28;20210;-69
2023/08/03 23:21:38;;;;;;;4.90;1.38;;;;;16.10;95787.00;;;;8372330;28;20338;-68
2023/08/03 23:25:42;;;;;;;3.55;1.67;;;;;16.10;95790.00;;;;8385308;28;20202;-69
2023/08/03 23:29:47;;;;;;;1.70;1.40;;;;;16.10;95803.00;;;;8389546;28;20398;-69
2023/08/03 23:33:53;;;;;;;1.80;1.67;;;;;16.00;95799.00;;;;8386082;28;20709;-69
2023/08/03 23:37:57;;;;;;;2.90;1.50;;;;;16.00;95789.00;;;;8376841;28;20319;-69
2023/08/03 23:42:07;;;;;;;4.07;1.55;;;;;16.00;95804.00;;;;8389867;28;20664;-69
2023/08/03 23:46:13;;;;;;;2.65;1.40;;;;;16.00;95808.00;;;;8382601;28;20193;-69
2023/08/03 23:50:16;;;;;;;2.55;1.52;;;;;16.00;95808.00;;;;8360135;28;20576;-70
2023/08/03 23:54:21;;;;;;;2.40;1.40;;;;;16.00;95815.00;;;;8371780;28;20225;-70